sensor_id;sensor_type;location;lat;lon;timestamp;temperature;humidity
78463;SHT31;67756;51.982;5.648;2023-06-19T00:01:02;25.2;45.0
78463;SHT31;67756;51.982;5.648;2023-06-19T00:03:31;25.2;45.1
78463;SHT31;67756;51.982;5.648;2023-06-19T00:05:59;25.2;45.5
78463;SHT31;67756;51.982;5.648;2023-06-19T00:08:28;25.2;45.7
78463;SHT31;67756;51.982;5.648;2023-06-19T00:10:58;25.2;45.8
78463;SHT31;67756;51.982;5.648;2023-06-19T00:13:29;25.2;46.0
78463;SHT31;67756;51.982;5.648;2023-06-19T00:15:57;25.2;46.2
78463;SHT31;67756;51.982;5.648;2023-06-19T00:18:26;25.2;46.3
78463;SHT31;67756;51.982;5.648;2023-06-19T00:20:55;25.2;46.4
78463;SHT31;67756;51.982;5.648;2023-06-19T00:23:24;25.2;46.5
78463;SHT31;67756;51.982;5.648;2023-06-19T00:25:55;25.2;46.7
78463;SHT31;67756;51.982;5.648;2023-06-19T00:28:23;25.2;46.6
78463;SHT31;67756;51.982;5.648;2023-06-19T00:30:52;25.1;46.8
78463;SHT31;67756;51.982;5.648;2023-06-19T00:33:20;25.1;47.1
78463;SHT31;67756;51.982;5.648;2023-06-19T00:35:50;25.1;47.1
78463;SHT31;67756;51.982;5.648;2023-06-19T00:38:22;25.0;47.4
78463;SHT31;67756;51.982;5.648;2023-06-19T00:40:52;25.0;47.4
78463;SHT31;67756;51.982;5.648;2023-06-19T00:43:20;25.0;47.6
78463;SHT31;67756;51.982;5.648;2023-06-19T00:45:49;25.0;47.5
78463;SHT31;67756;51.982;5.648;2023-06-19T00:48:18;24.9;47.6
78463;SHT31;67756;51.982;5.648;2023-06-19T00:50:46;24.9;47.9
78463;SHT31;67756;51.982;5.648;2023-06-19T00:53:15;24.8;48.0
78463;SHT31;67756;51.982;5.648;2023-06-19T00:55:44;24.8;48.2
78463;SHT31;67756;51.982;5.648;2023-06-19T00:58:13;24.7;48.3
78463;SHT31;67756;51.982;5.648;2023-06-19T01:00:43;24.7;48.5
78463;SHT31;67756;51.982;5.648;2023-06-19T01:03:11;24.6;48.5
78463;SHT31;67756;51.982;5.648;2023-06-19T01:05:40;24.6;48.7
78463;SHT31;67756;51.982;5.648;2023-06-19T01:08:14;24.6;49.0
78463;SHT31;67756;51.982;5.648;2023-06-19T01:10:51;24.5;48.7
78463;SHT31;67756;51.982;5.648;2023-06-19T01:13:28;24.5;49.0
78463;SHT31;67756;51.982;5.648;2023-06-19T01:16:02;24.4;49.2
78463;SHT31;67756;51.982;5.648;2023-06-19T01:18:32;24.4;49.4
78463;SHT31;67756;51.982;5.648;2023-06-19T01:21:10;24.3;49.6
78463;SHT31;67756;51.982;5.648;2023-06-19T01:23:39;24.3;49.9
78463;SHT31;67756;51.982;5.648;2023-06-19T01:26:09;24.3;49.9
78463;SHT31;67756;51.982;5.648;2023-06-19T01:28:40;24.2;50.3
78463;SHT31;67756;51.982;5.648;2023-06-19T01:31:13;24.2;50.4
78463;SHT31;67756;51.982;5.648;2023-06-19T01:33:45;24.1;50.7
78463;SHT31;67756;51.982;5.648;2023-06-19T01:36:15;24.0;51.1
78463;SHT31;67756;51.982;5.648;2023-06-19T01:38:45;24.0;51.1
78463;SHT31;67756;51.982;5.648;2023-06-19T01:41:16;24.0;51.2
78463;SHT31;67756;51.982;5.648;2023-06-19T01:43:46;23.9;51.3
78463;SHT31;67756;51.982;5.648;2023-06-19T01:46:15;23.8;51.6
78463;SHT31;67756;51.982;5.648;2023-06-19T01:48:44;23.8;51.9
78463;SHT31;67756;51.982;5.648;2023-06-19T01:51:13;23.7;52.2
78463;SHT31;67756;51.982;5.648;2023-06-19T01:53:41;23.7;52.5
78463;SHT31;67756;51.982;5.648;2023-06-19T01:56:12;23.6;52.7
78463;SHT31;67756;51.982;5.648;2023-06-19T01:58:40;23.6;53.0
78463;SHT31;67756;51.982;5.648;2023-06-19T02:01:09;23.5;53.3
78463;SHT31;67756;51.982;5.648;2023-06-19T02:03:37;23.5;53.2
78463;SHT31;67756;51.982;5.648;2023-06-19T02:06:06;23.5;53.4
78463;SHT31;67756;51.982;5.648;2023-06-19T02:08:34;23.4;53.6
78463;SHT31;67756;51.982;5.648;2023-06-19T02:11:03;23.4;54.0
78463;SHT31;67756;51.982;5.648;2023-06-19T02:13:33;23.4;54.4
78463;SHT31;67756;51.982;5.648;2023-06-19T02:16:02;23.3;54.8
78463;SHT31;67756;51.982;5.648;2023-06-19T02:18:30;23.3;55.1
78463;SHT31;67756;51.982;5.648;2023-06-19T02:20:59;23.3;55.2
78463;SHT31;67756;51.982;5.648;2023-06-19T02:23:27;23.3;55.5
78463;SHT31;67756;51.982;5.648;2023-06-19T02:25:56;23.3;55.5
78463;SHT31;67756;51.982;5.648;2023-06-19T02:28:24;23.4;55.4
78463;SHT31;67756;51.982;5.648;2023-06-19T02:30:54;23.4;55.2
78463;SHT31;67756;51.982;5.648;2023-06-19T02:33:22;23.4;55.3
78463;SHT31;67756;51.982;5.648;2023-06-19T02:35:51;23.4;55.5
78463;SHT31;67756;51.982;5.648;2023-06-19T02:38:24;23.4;55.7
78463;SHT31;67756;51.982;5.648;2023-06-19T02:40:53;23.3;55.8
78463;SHT31;67756;51.982;5.648;2023-06-19T02:43:23;23.3;56.0
78463;SHT31;67756;51.982;5.648;2023-06-19T02:45:52;23.3;56.2
78463;SHT31;67756;51.982;5.648;2023-06-19T02:48:20;23.3;56.5
78463;SHT31;67756;51.982;5.648;2023-06-19T02:50:49;23.3;56.5
78463;SHT31;67756;51.982;5.648;2023-06-19T02:53:18;23.2;56.7
78463;SHT31;67756;51.982;5.648;2023-06-19T02:55:46;23.2;57.1
78463;SHT31;67756;51.982;5.648;2023-06-19T02:58:15;23.2;57.1
78463;SHT31;67756;51.982;5.648;2023-06-19T03:00:44;23.2;57.1
78463;SHT31;67756;51.982;5.648;2023-06-19T03:03:12;23.2;57.3
78463;SHT31;67756;51.982;5.648;2023-06-19T03:05:41;23.2;57.4
78463;SHT31;67756;51.982;5.648;2023-06-19T03:08:09;23.1;57.4
78463;SHT31;67756;51.982;5.648;2023-06-19T03:10:38;23.1;57.6
78463;SHT31;67756;51.982;5.648;2023-06-19T03:13:07;23.1;57.5
78463;SHT31;67756;51.982;5.648;2023-06-19T03:15:35;23.1;57.9
78463;SHT31;67756;51.982;5.648;2023-06-19T03:18:04;23.1;57.8
78463;SHT31;67756;51.982;5.648;2023-06-19T03:20:34;23.1;57.9
78463;SHT31;67756;51.982;5.648;2023-06-19T03:23:03;23.0;58.1
78463;SHT31;67756;51.982;5.648;2023-06-19T03:25:31;23.0;58.1
78463;SHT31;67756;51.982;5.648;2023-06-19T03:28:01;23.0;58.3
78463;SHT31;67756;51.982;5.648;2023-06-19T03:30:31;23.0;58.3
78463;SHT31;67756;51.982;5.648;2023-06-19T03:32:59;23.0;58.4
78463;SHT31;67756;51.982;5.648;2023-06-19T03:35:27;23.0;58.4
78463;SHT31;67756;51.982;5.648;2023-06-19T03:37:57;23.0;58.5
78463;SHT31;67756;51.982;5.648;2023-06-19T03:40:25;22.9;58.6
78463;SHT31;67756;51.982;5.648;2023-06-19T03:42:54;22.9;59.1
78463;SHT31;67756;51.982;5.648;2023-06-19T03:45:23;22.9;59.0
78463;SHT31;67756;51.982;5.648;2023-06-19T03:47:51;22.9;59.1
78463;SHT31;67756;51.982;5.648;2023-06-19T03:50:20;22.9;59.0
78463;SHT31;67756;51.982;5.648;2023-06-19T03:52:48;22.9;59.2
78463;SHT31;67756;51.982;5.648;2023-06-19T03:55:18;22.9;59.2
78463;SHT31;67756;51.982;5.648;2023-06-19T03:57:46;22.9;59.3
78463;SHT31;67756;51.982;5.648;2023-06-19T04:00:16;22.9;59.3
78463;SHT31;67756;51.982;5.648;2023-06-19T04:02:45;22.9;59.4
78463;SHT31;67756;51.982;5.648;2023-06-19T04:05:15;22.9;59.4
78463;SHT31;67756;51.982;5.648;2023-06-19T04:07:46;22.9;59.5
78463;SHT31;67756;51.982;5.648;2023-06-19T04:10:14;22.9;59.8
78463;SHT31;67756;51.982;5.648;2023-06-19T04:12:43;22.8;59.9
78463;SHT31;67756;51.982;5.648;2023-06-19T04:15:12;22.8;60.0
78463;SHT31;67756;51.982;5.648;2023-06-19T04:17:41;22.8;60.2
78463;SHT31;67756;51.982;5.648;2023-06-19T04:20:10;22.8;60.2
78463;SHT31;67756;51.982;5.648;2023-06-19T04:22:40;22.8;60.1
78463;SHT31;67756;51.982;5.648;2023-06-19T04:25:10;22.8;60.3
78463;SHT31;67756;51.982;5.648;2023-06-19T04:27:41;22.8;60.3
78463;SHT31;67756;51.982;5.648;2023-06-19T04:30:11;22.8;60.4
78463;SHT31;67756;51.982;5.648;2023-06-19T04:32:40;22.8;60.6
78463;SHT31;67756;51.982;5.648;2023-06-19T04:35:10;22.8;60.9
78463;SHT31;67756;51.982;5.648;2023-06-19T04:37:38;22.8;61.1
78463;SHT31;67756;51.982;5.648;2023-06-19T04:40:07;22.7;61.3
78463;SHT31;67756;51.982;5.648;2023-06-19T04:42:37;22.7;61.6
78463;SHT31;67756;51.982;5.648;2023-06-19T04:45:07;22.7;62.5
78463;SHT31;67756;51.982;5.648;2023-06-19T04:47:36;22.7;63.4
78463;SHT31;67756;51.982;5.648;2023-06-19T04:50:06;22.7;63.5
78463;SHT31;67756;51.982;5.648;2023-06-19T04:52:35;22.6;63.7
78463;SHT31;67756;51.982;5.648;2023-06-19T04:55:04;22.6;63.9
78463;SHT31;67756;51.982;5.648;2023-06-19T04:57:35;22.6;64.3
78463;SHT31;67756;51.982;5.648;2023-06-19T05:00:05;22.6;64.5
78463;SHT31;67756;51.982;5.648;2023-06-19T05:02:36;22.6;64.6
78463;SHT31;67756;51.982;5.648;2023-06-19T05:05:05;22.5;64.7
78463;SHT31;67756;51.982;5.648;2023-06-19T05:07:34;22.5;64.8
78463;SHT31;67756;51.982;5.648;2023-06-19T05:10:03;22.5;64.6
78463;SHT31;67756;51.982;5.648;2023-06-19T05:12:31;22.5;64.6
78463;SHT31;67756;51.982;5.648;2023-06-19T05:15:00;22.5;64.7
78463;SHT31;67756;51.982;5.648;2023-06-19T05:17:28;22.5;64.9
78463;SHT31;67756;51.982;5.648;2023-06-19T05:19:57;22.5;64.7
78463;SHT31;67756;51.982;5.648;2023-06-19T05:22:25;22.5;64.8
78463;SHT31;67756;51.982;5.648;2023-06-19T05:24:54;22.6;64.7
78463;SHT31;67756;51.982;5.648;2023-06-19T05:27:22;22.6;64.6
78463;SHT31;67756;51.982;5.648;2023-06-19T05:29:51;22.6;64.7
78463;SHT31;67756;51.982;5.648;2023-06-19T05:32:21;22.6;64.7
78463;SHT31;67756;51.982;5.648;2023-06-19T05:34:50;22.6;64.6
78463;SHT31;67756;51.982;5.648;2023-06-19T05:37:18;22.7;64.4
78463;SHT31;67756;51.982;5.648;2023-06-19T05:39:48;22.7;64.2
78463;SHT31;67756;51.982;5.648;2023-06-19T05:42:17;22.7;64.0
78463;SHT31;67756;51.982;5.648;2023-06-19T05:44:47;22.7;64.0
78463;SHT31;67756;51.982;5.648;2023-06-19T05:47:15;22.7;63.9
78463;SHT31;67756;51.982;5.648;2023-06-19T05:49:47;22.7;64.0
78463;SHT31;67756;51.982;5.648;2023-06-19T05:52:15;22.7;63.9
78463;SHT31;67756;51.982;5.648;2023-06-19T05:54:44;22.7;64.2
78463;SHT31;67756;51.982;5.648;2023-06-19T05:57:12;22.8;64.2
78463;SHT31;67756;51.982;5.648;2023-06-19T05:59:42;22.8;64.0
78463;SHT31;67756;51.982;5.648;2023-06-19T06:02:12;22.9;63.1
78463;SHT31;67756;51.982;5.648;2023-06-19T06:04:41;22.9;63.0
78463;SHT31;67756;51.982;5.648;2023-06-19T06:07:11;22.9;62.3
78463;SHT31;67756;51.982;5.648;2023-06-19T06:09:41;22.9;62.5
78463;SHT31;67756;51.982;5.648;2023-06-19T06:12:10;22.9;62.4
78463;SHT31;67756;51.982;5.648;2023-06-19T06:14:40;22.9;62.4
78463;SHT31;67756;51.982;5.648;2023-06-19T06:17:08;23.0;62.2
78463;SHT31;67756;51.982;5.648;2023-06-19T06:19:37;23.0;62.1
78463;SHT31;67756;51.982;5.648;2023-06-19T06:22:06;23.0;62.4
78463;SHT31;67756;51.982;5.648;2023-06-19T06:24:35;23.0;62.3
78463;SHT31;67756;51.982;5.648;2023-06-19T06:27:06;23.1;61.8
78463;SHT31;67756;51.982;5.648;2023-06-19T06:29:34;23.1;60.8
78463;SHT31;67756;51.982;5.648;2023-06-19T06:32:07;23.2;60.4
78463;SHT31;67756;51.982;5.648;2023-06-19T06:34:36;23.3;59.3
78463;SHT31;67756;51.982;5.648;2023-06-19T06:37:05;23.3;58.8
78463;SHT31;67756;51.982;5.648;2023-06-19T06:39:33;23.3;58.3
78463;SHT31;67756;51.982;5.648;2023-06-19T06:42:02;23.3;57.7
78463;SHT31;67756;51.982;5.648;2023-06-19T06:44:33;23.3;57.7
78463;SHT31;67756;51.982;5.648;2023-06-19T06:47:01;23.3;57.3
78463;SHT31;67756;51.982;5.648;2023-06-19T06:49:30;23.3;57.3
78463;SHT31;67756;51.982;5.648;2023-06-19T06:51:58;23.3;57.2
78463;SHT31;67756;51.982;5.648;2023-06-19T06:54:27;23.3;56.9
78463;SHT31;67756;51.982;5.648;2023-06-19T06:56:55;23.2;57.0
78463;SHT31;67756;51.982;5.648;2023-06-19T06:59:26;23.2;57.2
78463;SHT31;67756;51.982;5.648;2023-06-19T07:01:55;23.2;57.1
78463;SHT31;67756;51.982;5.648;2023-06-19T07:04:24;23.2;57.0
78463;SHT31;67756;51.982;5.648;2023-06-19T07:06:53;23.3;56.9
78463;SHT31;67756;51.982;5.648;2023-06-19T07:09:21;23.3;57.1
78463;SHT31;67756;51.982;5.648;2023-06-19T07:11:50;23.3;57.6
78463;SHT31;67756;51.982;5.648;2023-06-19T07:14:20;23.3;57.5
78463;SHT31;67756;51.982;5.648;2023-06-19T07:16:49;23.4;57.7
78463;SHT31;67756;51.982;5.648;2023-06-19T07:19:18;23.4;57.5
78463;SHT31;67756;51.982;5.648;2023-06-19T07:21:47;23.4;56.8
78463;SHT31;67756;51.982;5.648;2023-06-19T07:24:15;23.5;55.5
78463;SHT31;67756;51.982;5.648;2023-06-19T07:26:45;23.5;55.2
78463;SHT31;67756;51.982;5.648;2023-06-19T07:29:14;23.5;54.7
78463;SHT31;67756;51.982;5.648;2023-06-19T07:31:42;23.5;54.8
78463;SHT31;67756;51.982;5.648;2023-06-19T07:34:11;23.5;54.5
78463;SHT31;67756;51.982;5.648;2023-06-19T07:36:40;23.5;54.6
78463;SHT31;67756;51.982;5.648;2023-06-19T07:39:08;23.5;54.3
78463;SHT31;67756;51.982;5.648;2023-06-19T07:41:37;23.5;54.3
78463;SHT31;67756;51.982;5.648;2023-06-19T07:44:06;23.5;54.3
78463;SHT31;67756;51.982;5.648;2023-06-19T07:46:34;23.5;54.5
78463;SHT31;67756;51.982;5.648;2023-06-19T07:49:03;23.6;54.5
78463;SHT31;67756;51.982;5.648;2023-06-19T07:51:31;23.6;54.2
78463;SHT31;67756;51.982;5.648;2023-06-19T07:54:00;23.6;54.4
78463;SHT31;67756;51.982;5.648;2023-06-19T07:56:28;23.7;53.8
78463;SHT31;67756;51.982;5.648;2023-06-19T07:58:58;23.8;53.6
78463;SHT31;67756;51.982;5.648;2023-06-19T08:01:27;23.8;53.6
78463;SHT31;67756;51.982;5.648;2023-06-19T08:03:55;23.9;53.1
78463;SHT31;67756;51.982;5.648;2023-06-19T08:06:24;23.9;52.9
78463;SHT31;67756;51.982;5.648;2023-06-19T08:08:54;23.9;53.1
78463;SHT31;67756;51.982;5.648;2023-06-19T08:11:23;23.9;52.6
78463;SHT31;67756;51.982;5.648;2023-06-19T08:13:54;23.9;52.7
78463;SHT31;67756;51.982;5.648;2023-06-19T08:16:24;23.9;52.8
78463;SHT31;67756;51.982;5.648;2023-06-19T08:18:53;23.9;52.7
78463;SHT31;67756;51.982;5.648;2023-06-19T08:21:24;23.9;52.1
78463;SHT31;67756;51.982;5.648;2023-06-19T08:23:52;23.9;52.5
78463;SHT31;67756;51.982;5.648;2023-06-19T08:26:21;24.0;53.0
78463;SHT31;67756;51.982;5.648;2023-06-19T08:28:49;24.0;52.8
78463;SHT31;67756;51.982;5.648;2023-06-19T08:31:18;24.0;53.2
78463;SHT31;67756;51.982;5.648;2023-06-19T08:33:48;24.1;52.8
78463;SHT31;67756;51.982;5.648;2023-06-19T08:36:16;24.1;53.1
78463;SHT31;67756;51.982;5.648;2023-06-19T08:38:45;24.1;52.5
78463;SHT31;67756;51.982;5.648;2023-06-19T08:41:16;24.1;52.8
78463;SHT31;67756;51.982;5.648;2023-06-19T08:43:45;24.2;52.5
78463;SHT31;67756;51.982;5.648;2023-06-19T08:46:16;24.2;52.7
78463;SHT31;67756;51.982;5.648;2023-06-19T08:48:45;24.3;52.8
78463;SHT31;67756;51.982;5.648;2023-06-19T08:51:14;24.3;52.6
78463;SHT31;67756;51.982;5.648;2023-06-19T08:53:47;24.4;52.6
78463;SHT31;67756;51.982;5.648;2023-06-19T08:56:17;24.5;52.2
78463;SHT31;67756;51.982;5.648;2023-06-19T08:58:48;24.6;52.5
78463;SHT31;67756;51.982;5.648;2023-06-19T09:01:19;24.7;52.4
78463;SHT31;67756;51.982;5.648;2023-06-19T09:03:47;24.9;51.6
78463;SHT31;67756;51.982;5.648;2023-06-19T09:06:18;25.0;51.8
78463;SHT31;67756;51.982;5.648;2023-06-19T09:08:59;25.1;51.1
78463;SHT31;67756;51.982;5.648;2023-06-19T09:11:28;25.3;50.6
78463;SHT31;67756;51.982;5.648;2023-06-19T09:13:58;25.3;50.5
78463;SHT31;67756;51.982;5.648;2023-06-19T09:16:38;25.4;50.7
78463;SHT31;67756;51.982;5.648;2023-06-19T09:19:07;25.5;50.1
78463;SHT31;67756;51.982;5.648;2023-06-19T09:21:37;25.5;49.8
78463;SHT31;67756;51.982;5.648;2023-06-19T09:24:08;25.6;49.5
78463;SHT31;67756;51.982;5.648;2023-06-19T09:26:36;25.6;49.4
78463;SHT31;67756;51.982;5.648;2023-06-19T09:29:14;25.6;49.3
78463;SHT31;67756;51.982;5.648;2023-06-19T09:31:45;25.6;49.6
78463;SHT31;67756;51.982;5.648;2023-06-19T09:34:14;25.6;49.7
78463;SHT31;67756;51.982;5.648;2023-06-19T09:36:47;25.6;49.6
78463;SHT31;67756;51.982;5.648;2023-06-19T09:39:18;25.6;48.7
78463;SHT31;67756;51.982;5.648;2023-06-19T09:41:51;25.6;49.2
78463;SHT31;67756;51.982;5.648;2023-06-19T09:44:22;25.6;48.7
78463;SHT31;67756;51.982;5.648;2023-06-19T09:46:52;25.7;49.5
78463;SHT31;67756;51.982;5.648;2023-06-19T09:49:29;25.7;50.0
78463;SHT31;67756;51.982;5.648;2023-06-19T09:52:00;25.7;49.0
78463;SHT31;67756;51.982;5.648;2023-06-19T09:54:29;25.8;48.9
78463;SHT31;67756;51.982;5.648;2023-06-19T09:56:59;25.9;48.9
78463;SHT31;67756;51.982;5.648;2023-06-19T09:59:29;25.9;48.0
78463;SHT31;67756;51.982;5.648;2023-06-19T10:01:58;26.0;47.7
78463;SHT31;67756;51.982;5.648;2023-06-19T10:04:27;26.1;48.3
78463;SHT31;67756;51.982;5.648;2023-06-19T10:06:56;26.2;47.4
78463;SHT31;67756;51.982;5.648;2023-06-19T10:09:32;26.4;46.8
78463;SHT31;67756;51.982;5.648;2023-06-19T10:12:13;26.5;47.1
78463;SHT31;67756;51.982;5.648;2023-06-19T10:14:47;26.6;46.9
78463;SHT31;67756;51.982;5.648;2023-06-19T10:17:18;26.7;46.7
78463;SHT31;67756;51.982;5.648;2023-06-19T10:19:51;26.9;46.2
78463;SHT31;67756;51.982;5.648;2023-06-19T10:22:23;27.1;45.5
78463;SHT31;67756;51.982;5.648;2023-06-19T10:24:53;27.2;45.3
78463;SHT31;67756;51.982;5.648;2023-06-19T10:27:24;27.2;45.3
78463;SHT31;67756;51.982;5.648;2023-06-19T10:29:55;27.3;45.1
78463;SHT31;67756;51.982;5.648;2023-06-19T10:32:26;27.4;45.9
78463;SHT31;67756;51.982;5.648;2023-06-19T10:34:55;27.5;44.5
78463;SHT31;67756;51.982;5.648;2023-06-19T10:37:33;27.6;44.7
78463;SHT31;67756;51.982;5.648;2023-06-19T10:40:02;27.6;44.3
78463;SHT31;67756;51.982;5.648;2023-06-19T10:42:34;27.7;44.0
78463;SHT31;67756;51.982;5.648;2023-06-19T10:45:05;27.8;43.8
78463;SHT31;67756;51.982;5.648;2023-06-19T10:47:37;28.0;43.8
78463;SHT31;67756;51.982;5.648;2023-06-19T10:50:09;28.2;43.7
78463;SHT31;67756;51.982;5.648;2023-06-19T10:52:39;28.5;42.6
78463;SHT31;67756;51.982;5.648;2023-06-19T10:55:09;28.7;42.0
78463;SHT31;67756;51.982;5.648;2023-06-19T10:57:39;28.8;42.3
78463;SHT31;67756;51.982;5.648;2023-06-19T11:00:08;28.9;41.8
78463;SHT31;67756;51.982;5.648;2023-06-19T11:02:42;29.0;42.0
78463;SHT31;67756;51.982;5.648;2023-06-19T11:05:11;29.1;41.4
78463;SHT31;67756;51.982;5.648;2023-06-19T11:07:42;29.2;41.1
78463;SHT31;67756;51.982;5.648;2023-06-19T11:10:20;29.2;41.8
78463;SHT31;67756;51.982;5.648;2023-06-19T11:12:50;29.2;41.8
78463;SHT31;67756;51.982;5.648;2023-06-19T11:15:18;29.2;41.1
78463;SHT31;67756;51.982;5.648;2023-06-19T11:17:47;29.2;41.5
78463;SHT31;67756;51.982;5.648;2023-06-19T11:20:16;29.3;41.2
78463;SHT31;67756;51.982;5.648;2023-06-19T11:22:45;29.4;41.1
78463;SHT31;67756;51.982;5.648;2023-06-19T11:25:13;29.6;40.5
78463;SHT31;67756;51.982;5.648;2023-06-19T11:27:47;29.7;40.7
78463;SHT31;67756;51.982;5.648;2023-06-19T11:30:18;29.8;40.3
78463;SHT31;67756;51.982;5.648;2023-06-19T11:32:48;29.8;40.0
78463;SHT31;67756;51.982;5.648;2023-06-19T11:35:18;29.8;39.9
78463;SHT31;67756;51.982;5.648;2023-06-19T11:37:48;29.9;38.7
78463;SHT31;67756;51.982;5.648;2023-06-19T11:40:19;29.9;39.8
78463;SHT31;67756;51.982;5.648;2023-06-19T11:42:52;29.9;39.4
78463;SHT31;67756;51.982;5.648;2023-06-19T11:45:21;30.0;38.9
78463;SHT31;67756;51.982;5.648;2023-06-19T11:47:50;30.2;38.7
78463;SHT31;67756;51.982;5.648;2023-06-19T11:50:25;30.3;38.8
78463;SHT31;67756;51.982;5.648;2023-06-19T11:52:54;30.6;38.2
78463;SHT31;67756;51.982;5.648;2023-06-19T11:55:26;30.8;37.7
78463;SHT31;67756;51.982;5.648;2023-06-19T11:57:55;31.0;37.4
78463;SHT31;67756;51.982;5.648;2023-06-19T12:00:23;31.2;36.2
78463;SHT31;67756;51.982;5.648;2023-06-19T12:02:54;31.4;36.2
78463;SHT31;67756;51.982;5.648;2023-06-19T12:05:23;31.7;35.8
78463;SHT31;67756;51.982;5.648;2023-06-19T12:07:52;31.9;35.7
78463;SHT31;67756;51.982;5.648;2023-06-19T12:10:20;32.1;35.8
78463;SHT31;67756;51.982;5.648;2023-06-19T12:12:49;32.3;34.8
78463;SHT31;67756;51.982;5.648;2023-06-19T12:15:17;32.6;34.3
78463;SHT31;67756;51.982;5.648;2023-06-19T12:17:47;32.8;34.1
78463;SHT31;67756;51.982;5.648;2023-06-19T12:20:15;33.0;33.7
78463;SHT31;67756;51.982;5.648;2023-06-19T12:22:44;33.2;33.7
78463;SHT31;67756;51.982;5.648;2023-06-19T12:25:12;33.5;32.5
78463;SHT31;67756;51.982;5.648;2023-06-19T12:27:42;33.6;32.0
78463;SHT31;67756;51.982;5.648;2023-06-19T12:30:14;33.7;31.8
78463;SHT31;67756;51.982;5.648;2023-06-19T12:32:44;33.9;31.9
78463;SHT31;67756;51.982;5.648;2023-06-19T12:35:16;34.0;31.5
78463;SHT31;67756;51.982;5.648;2023-06-19T12:37:45;34.1;31.4
78463;SHT31;67756;51.982;5.648;2023-06-19T12:40:14;34.2;31.4
78463;SHT31;67756;51.982;5.648;2023-06-19T12:42:43;34.3;30.9
78463;SHT31;67756;51.982;5.648;2023-06-19T12:45:12;34.4;31.0
78463;SHT31;67756;51.982;5.648;2023-06-19T12:47:41;34.5;30.7
78463;SHT31;67756;51.982;5.648;2023-06-19T12:50:10;34.7;30.4
78463;SHT31;67756;51.982;5.648;2023-06-19T12:52:38;34.9;30.9
78463;SHT31;67756;51.982;5.648;2023-06-19T12:55:07;35.1;30.1
78463;SHT31;67756;51.982;5.648;2023-06-19T12:57:36;35.3;28.6
78463;SHT31;67756;51.982;5.648;2023-06-19T13:00:09;35.5;28.5
78463;SHT31;67756;51.982;5.648;2023-06-19T13:02:38;35.6;27.9
78463;SHT31;67756;51.982;5.648;2023-06-19T13:05:09;35.8;28.3
78463;SHT31;67756;51.982;5.648;2023-06-19T13:07:38;36.0;28.0
78463;SHT31;67756;51.982;5.648;2023-06-19T13:10:07;36.2;28.6
78463;SHT31;67756;51.982;5.648;2023-06-19T13:12:36;36.3;27.0
78463;SHT31;67756;51.982;5.648;2023-06-19T13:15:05;36.4;26.5
78463;SHT31;67756;51.982;5.648;2023-06-19T13:17:34;36.5;26.8
78463;SHT31;67756;51.982;5.648;2023-06-19T13:20:03;36.6;26.6
78463;SHT31;67756;51.982;5.648;2023-06-19T13:22:32;36.6;26.5
78463;SHT31;67756;51.982;5.648;2023-06-19T13:25:01;36.7;26.1
78463;SHT31;67756;51.982;5.648;2023-06-19T13:27:30;36.7;26.4
78463;SHT31;67756;51.982;5.648;2023-06-19T13:30:00;36.7;26.1
78463;SHT31;67756;51.982;5.648;2023-06-19T13:32:29;36.8;26.9
78463;SHT31;67756;51.982;5.648;2023-06-19T13:34:57;36.9;26.9
78463;SHT31;67756;51.982;5.648;2023-06-19T13:37:26;37.0;26.4
78463;SHT31;67756;51.982;5.648;2023-06-19T13:39:54;37.1;26.0
78463;SHT31;67756;51.982;5.648;2023-06-19T13:42:23;37.1;26.4
78463;SHT31;67756;51.982;5.648;2023-06-19T13:44:53;37.1;26.0
78463;SHT31;67756;51.982;5.648;2023-06-19T13:47:21;37.1;26.4
78463;SHT31;67756;51.982;5.648;2023-06-19T13:49:51;37.2;26.6
78463;SHT31;67756;51.982;5.648;2023-06-19T13:52:20;37.2;26.3
78463;SHT31;67756;51.982;5.648;2023-06-19T13:54:49;37.2;26.8
78463;SHT31;67756;51.982;5.648;2023-06-19T13:57:17;37.3;27.0
78463;SHT31;67756;51.982;5.648;2023-06-19T13:59:46;37.5;26.5
78463;SHT31;67756;51.982;5.648;2023-06-19T14:02:15;37.6;25.9
78463;SHT31;67756;51.982;5.648;2023-06-19T14:04:43;37.7;25.5
78463;SHT31;67756;51.982;5.648;2023-06-19T14:07:14;37.8;25.5
78463;SHT31;67756;51.982;5.648;2023-06-19T14:09:43;37.9;25.2
78463;SHT31;67756;51.982;5.648;2023-06-19T14:12:12;38.0;24.8
78463;SHT31;67756;51.982;5.648;2023-06-19T14:14:41;38.0;25.0
78463;SHT31;67756;51.982;5.648;2023-06-19T14:17:09;38.0;24.5
78463;SHT31;67756;51.982;5.648;2023-06-19T14:19:37;38.0;24.9
78463;SHT31;67756;51.982;5.648;2023-06-19T14:22:06;38.1;25.4
78463;SHT31;67756;51.982;5.648;2023-06-19T14:24:34;38.1;25.1
78463;SHT31;67756;51.982;5.648;2023-06-19T14:27:03;38.2;24.8
78463;SHT31;67756;51.982;5.648;2023-06-19T14:29:32;38.2;24.7
78463;SHT31;67756;51.982;5.648;2023-06-19T14:32:00;38.2;24.7
78463;SHT31;67756;51.982;5.648;2023-06-19T14:34:29;38.3;24.3
78463;SHT31;67756;51.982;5.648;2023-06-19T14:36:58;38.3;24.1
78463;SHT31;67756;51.982;5.648;2023-06-19T14:39:26;38.3;24.7
78463;SHT31;67756;51.982;5.648;2023-06-19T14:41:57;38.4;24.8
78463;SHT31;67756;51.982;5.648;2023-06-19T14:44:27;38.4;24.9
78463;SHT31;67756;51.982;5.648;2023-06-19T14:46:58;38.5;24.7
78463;SHT31;67756;51.982;5.648;2023-06-19T14:49:26;38.6;25.5
78463;SHT31;67756;51.982;5.648;2023-06-19T14:51:55;38.7;24.6
78463;SHT31;67756;51.982;5.648;2023-06-19T14:54:24;38.9;24.1
78463;SHT31;67756;51.982;5.648;2023-06-19T14:56:52;38.9;24.4
78463;SHT31;67756;51.982;5.648;2023-06-19T14:59:21;39.0;24.6
78463;SHT31;67756;51.982;5.648;2023-06-19T15:01:50;39.1;23.8
78463;SHT31;67756;51.982;5.648;2023-06-19T15:04:21;39.1;24.3
78463;SHT31;67756;51.982;5.648;2023-06-19T15:06:49;39.2;24.2
78463;SHT31;67756;51.982;5.648;2023-06-19T15:09:18;39.2;24.0
78463;SHT31;67756;51.982;5.648;2023-06-19T15:11:46;39.3;23.8
78463;SHT31;67756;51.982;5.648;2023-06-19T15:14:15;39.3;23.9
78463;SHT31;67756;51.982;5.648;2023-06-19T15:16:44;39.4;24.0
78463;SHT31;67756;51.982;5.648;2023-06-19T15:19:13;39.4;23.3
78463;SHT31;67756;51.982;5.648;2023-06-19T15:21:42;39.5;23.4
78463;SHT31;67756;51.982;5.648;2023-06-19T15:24:13;39.5;23.6
78463;SHT31;67756;51.982;5.648;2023-06-19T15:26:41;39.5;23.6
78463;SHT31;67756;51.982;5.648;2023-06-19T15:29:10;39.5;24.0
78463;SHT31;67756;51.982;5.648;2023-06-19T15:31:39;39.4;23.5
78463;SHT31;67756;51.982;5.648;2023-06-19T15:34:09;39.3;23.8
78463;SHT31;67756;51.982;5.648;2023-06-19T15:36:38;39.1;23.5
78463;SHT31;67756;51.982;5.648;2023-06-19T15:39:07;38.7;23.9
78463;SHT31;67756;51.982;5.648;2023-06-19T15:41:35;38.2;24.4
78463;SHT31;67756;51.982;5.648;2023-06-19T15:44:04;37.7;25.1
78463;SHT31;67756;51.982;5.648;2023-06-19T15:46:33;37.4;25.6
78463;SHT31;67756;51.982;5.648;2023-06-19T15:49:01;37.1;25.5
78463;SHT31;67756;51.982;5.648;2023-06-19T15:51:30;36.9;26.1
78463;SHT31;67756;51.982;5.648;2023-06-19T15:53:58;36.7;26.2
78463;SHT31;67756;51.982;5.648;2023-06-19T15:56:27;36.5;27.0
78463;SHT31;67756;51.982;5.648;2023-06-19T15:58:55;36.3;26.8
78463;SHT31;67756;51.982;5.648;2023-06-19T16:01:24;36.1;26.4
78463;SHT31;67756;51.982;5.648;2023-06-19T16:03:53;36.0;26.5
78463;SHT31;67756;51.982;5.648;2023-06-19T16:06:22;35.8;27.7
78463;SHT31;67756;51.982;5.648;2023-06-19T16:08:50;35.7;27.3
78463;SHT31;67756;51.982;5.648;2023-06-19T16:11:23;35.6;27.0
78463;SHT31;67756;51.982;5.648;2023-06-19T16:13:51;35.5;27.6
78463;SHT31;67756;51.982;5.648;2023-06-19T16:16:22;35.5;27.1